Nearby METAR Reports

 

KPBI - West Palm Beach, Florida, USA
Distance from station: NNE 9mi, 14km
Updated: Sat, 17-Aug-2019 9:53pm EDT
Partly cloudy
Partly cloudy
 Wind from calm
Wind: Calm
Temperature: 81°F , 27°C
Heat Index: 86°F , 30°C
Dew Point: 73°F , 23°C
Humidity: 79%
Barometer: 30.12 inHg , 1020 hPa
Clouds: Partly cloudy
Visibility: 10 miles , 16 km
Cloud details: Partly cloudy 25000 ft
2019/08/18 01:53 KPBI 180153Z 00000KT 10SM SCT250 27/23 A3012 RMK AO2 SLP198 T02720228 $
KBCT - Boca Raton, Florida, USA
Distance from station: SSE 13mi, 21km
Updated: Sat, 17-Aug-2019 9:47pm EDT
Clear
Clear
 Wind from NNE
Wind: NNE 3 mph , 6 km/h
Temperature: 81°F , 27°C
Heat Index: 87°F , 31°C
Dew Point: 75°F , 24°C
Humidity: 84%
Barometer: 30.11 inHg , 1019.6 hPa
Clouds: Clear
Visibility: 10 miles , 16 km
2019/08/18 01:47 KBCT 180147Z 03003KT 10SM CLR 27/24 A3011
 
KPMP - Pompano Beach, Florida, USA
Distance from station: S 22mi, 36km
Updated: Sat, 17-Aug-2019 9:53pm EDT
Clear
Clear
 Wind from calm
Wind: Calm
Temperature: 84°F , 29°C
Heat Index: 90°F , 32°C
Dew Point: 73°F , 23°C
Humidity: 70%
Barometer: 30.11 inHg , 1019.6 hPa
Clouds: Clear
Visibility: 10 miles , 16 km
2019/08/18 01:53 KPMP 180153Z AUTO 00000KT 10SM CLR 29/23 A3011 RMK AO2 SLP196 T02940233
KFXE - Ft Lauderd/Exec, Florida, USA
Distance from station: S 25mi, 41km
Updated: Sat, 17-Aug-2019 9:53pm EDT
Clear
Clear
 Wind from NNW
Wind: NNW 5 mph , 7 km/h
Temperature: 81°F , 27°C
Heat Index: 87°F , 31°C
Dew Point: 75°F , 24°C
Humidity: 84%
Barometer: 30.11 inHg , 1019.6 hPa
Clouds: Clear
Visibility: 10 miles , 16 km
2019/08/18 01:53 KFXE 180153Z AUTO 33004KT 10SM CLR 27/24 A3011 RMK AO2 SLP198 T02720244 $
 
KFLL - Ft Lauderd/Holly, Florida, USA
Distance from station: S 35mi, 56km
Updated: Sat, 17-Aug-2019 9:53pm EDT
Mostly cloudy
Mostly cloudy
 Wind from calm
Wind: Calm
Temperature: 82°F , 28°C
Heat Index: 89°F , 32°C
Dew Point: 75°F , 24°C
Humidity: 79%
Barometer: 30.10 inHg , 1019.3 hPa
Clouds: Mostly cloudy
Visibility: 10 miles , 16 km
Cloud details: Few Clouds 2900 ft
Mostly cloudy 3700 ft
2019/08/18 01:53 KFLL 180153Z 00000KT 10SM FEW029 BKN037 28/24 A3010 RMK AO2 SLP193 T02830244 $
KHWO - Hollywood, Florida, USA
Distance from station: S 39mi, 64km
Updated: Sat, 17-Aug-2019 9:53pm EDT
Mostly cloudy
Mostly cloudy
 Wind from calm
Wind: Calm
Temperature: 82°F , 28°C
Heat Index: 89°F , 32°C
Dew Point: 75°F , 24°C
Humidity: 79%
Barometer: 30.12 inHg , 1020 hPa
Clouds: Mostly cloudy
Visibility: 10 miles , 16 km
Cloud details: Mostly cloudy 3700 ft
2019/08/18 01:53 KHWO 180153Z AUTO 00000KT 10SM BKN037 28/24 A3012 RMK AO2 SLP200 T02830244
 
KSUA - Stuart/Witham, Florida, USA
Distance from station: N 43mi, 69km
Updated: Sat, 17-Aug-2019 9:50pm EDT
Clear
Clear
 Wind from calm
Wind: Calm
Temperature: 81°F , 27°C
Heat Index: 85°F , 29°C
Dew Point: 72°F , 22°C
Humidity: 74%
Barometer: 30.11 inHg , 1019.6 hPa
Clouds: Clear
Visibility: 7 miles , 11 km
2019/08/18 01:50 KSUA 180150Z 00000KT 7SM SKC 27/22 A3011
KOPF - Miami/Opa Locka, Florida, USA
Distance from station: S 46mi, 73km
Updated: Sat, 17-Aug-2019 9:53pm EDT
Partly cloudy
Partly cloudy
 Wind from N
Wind: N 5 mph , 7 km/h
Temperature: 82°F , 28°C
Heat Index: 89°F , 32°C
Dew Point: 75°F , 24°C
Humidity: 79%
Barometer: 30.11 inHg , 1019.6 hPa
Clouds: Partly cloudy
Visibility: 10 miles , 16 km
Cloud details: Partly cloudy 3400 ft
2019/08/18 01:53 KOPF 180153Z 35004KT 10SM SCT034 28/24 A3011 RMK AO2 SLP198 T02830244
 
KMIA - Miami, Florida, USA
Distance from station: S 54mi, 86km
Updated: Sat, 17-Aug-2019 9:53pm EDT
Mostly cloudy
Mostly cloudy
 Wind from calm
Wind: Calm
Temperature: 86°F , 30°C
Heat Index: 93°F , 34°C
Dew Point: 73°F , 23°C
Humidity: 66%
Barometer: 30.11 inHg , 1019.6 hPa
Clouds: Mostly cloudy
Visibility: 10 miles , 16 km
Cloud details: Mostly cloudy 3500 ft
Mostly cloudy 25000 ft
2019/08/18 01:53 KMIA 180153Z 00000KT 10SM BKN035 BKN250 30/23 A3011 RMK AO2 SLP195 T03000233
KOBE - Okeechobee Cty, Florida, USA
Distance from station: NW 64mi, 104km
Updated: Sat, 17-Aug-2019 10:35pm EDT
Clear
Clear
 Wind from calm
Wind: Calm
Temperature: 72°F , 22°C
Dew Point: 72°F , 22°C
Humidity: 100%
Barometer: 30.10 inHg , 1019.3 hPa
Clouds: Clear
Visibility: 10 miles , 16 km
2019/08/18 02:35 KOBE 180235Z AUTO 00000KT 10SM CLR 22/22 A3010 RMK AO2
 
KFPR - Fort Pierce, Florida, USA
Distance from station: NNW 66mi, 106km
Updated: Sat, 17-Aug-2019 9:53pm EDT
Clear
Clear
 Wind from calm
Wind: Calm
Temperature: 75°F , 24°C
Dew Point: 73°F , 23°C
Humidity: 94%
Barometer: 30.09 inHg , 1019 hPa
Clouds: Clear
Visibility: 10 miles , 16 km
2019/08/18 01:53 KFPR 180153Z AUTO 00000KT 10SM CLR 24/23 A3009 RMK AO2 SLP190 T02440228
KTMB - Miami/Tamiami, Florida, USA
Distance from station: SSW 66mi, 106km
Updated: Sat, 17-Aug-2019 9:53pm EDT
Mostly cloudy
Mostly cloudy
 Wind from calm
Wind: Calm
Temperature: 82°F , 28°C
Heat Index: 89°F , 32°C
Dew Point: 75°F , 24°C
Humidity: 79%
Barometer: 30.10 inHg , 1019.3 hPa
Clouds: Mostly cloudy
Visibility: 10 miles , 16 km
Cloud details: Mostly cloudy 3300 ft
2019/08/18 01:53 KTMB 180153Z 00000KT 10SM BKN033 28/24 A3010 RMK AO2 SLP193 T02780244
 
KVRB - Vero Beach, Florida, USA
Distance from station: NNW 76mi, 123km
Updated: Sat, 17-Aug-2019 9:53pm EDT
Clear
Clear
 Wind from calm
Wind: Calm
Temperature: 75°F , 24°C
Dew Point: 73°F , 23°C
Humidity: 94%
Barometer: 30.09 inHg , 1019 hPa
Clouds: Clear
Visibility: 10 miles , 16 km
2019/08/18 01:53 KVRB 180153Z AUTO 00000KT 10SM CLR 24/23 A3009 RMK AO2 SLP189 T02440228
KHST - Homestead Afb, Florida, USA
Distance from station: S 77mi, 124km
Updated: Sat, 17-Aug-2019 9:56pm EDT
Clear
Clear
 Wind from calm
Wind: Calm
Temperature: 82°F , 28°C
Heat Index: 90°F , 32°C
Dew Point: 77°F , 25°C
Humidity: 84%
Barometer: 30.09 inHg , 1019 hPa
Clouds: Clear
Visibility: 10 miles , 16 km
2019/08/18 01:56 KHST 180156Z AUTO 00000KT 10SM CLR 28/25 A3009 RMK AO2 SLP193 T02780254
 
KIMM - Immokalee, Florida, USA
Distance from station: W 77mi, 124km
Updated: Sat, 17-Aug-2019 10:35pm EDT
Partly cloudy
Partly cloudy
 Wind from ESE
Wind: ESE 6 mph , 9 km/h
Temperature: 77°F , 25°C
Dew Point: 73°F , 23°C
Humidity: 89%
Barometer: 30.09 inHg , 1019 hPa
Clouds: Partly cloudy
Visibility: 10 miles , 16 km
Cloud details: Few Clouds 2500 ft
Partly cloudy 3400 ft
Partly cloudy 4300 ft
2019/08/18 02:35 KIMM 180235Z AUTO 12005KT 10SM FEW025 SCT034 SCT043 25/23 A3009 RMK AO2
MYGF - Freeport Intl A, Bahamas
Distance from station: E 90mi, 145km
Updated: Sat, 17-Aug-2019 8:00pm EDT
NOT Current
Partly cloudy
Partly cloudy
 Wind from SE
Wind: SE 6 mph , 9 km/h
Temperature: 86°F , 30°C
Heat Index: 97°F , 36°C
Dew Point: 77°F , 25°C
Humidity: 75%
Barometer: 30.08 inHg , 1018.6 hPa
Clouds: Partly cloudy
Visibility: 6 miles , 10 km
Cloud details: Few Clouds 1800 ft
Partly cloudy 25000 ft
2019/08/18 00:00 MYGF 180000Z 14005KT 9999 FEW018CB SCT250 30/25 A3008
 
KSEF - Sebring, Florida, USA
Distance from station: NW 95mi, 153km
Updated: Sat, 17-Aug-2019 10:35pm EDT
Clear
Clear
 Wind from SSE
Wind: SSE 5 mph , 7 km/h
Temperature: 75°F , 24°C
Dew Point: 75°F , 24°C
Humidity: 100%
Barometer: 30.11 inHg , 1019.6 hPa
Clouds: Clear
Visibility: 10 miles , 16 km
2019/08/18 02:35 KSEF 180235Z AUTO 15004KT 10SM CLR 24/24 A3011 RMK AO2 T02410236
KRSW - Fort Myers, Florida, USA
Distance from station: W 98mi, 158km
Updated: Sat, 17-Aug-2019 9:53pm EDT
Clear
Clear
 Wind from E
Wind: E 7 mph , 11 km/h
Temperature: 77°F , 25°C
Dew Point: 73°F , 23°C
Humidity: 89%
Barometer: 30.09 inHg , 1019 hPa
Clouds: Clear
Visibility: 10 miles , 16 km
2019/08/18 01:53 KRSW 180153Z 10006KT 10SM CLR 25/23 A3009 RMK AO2 SLP188 T02500233